Latest Weather Observations for St Lawrence

IDQ60801

Issued at 8:35 pm EST Sunday 20 April 2014 (issued every 30 minutes, with the page automatically refreshed every 10 minutes)

About weather observations | Map of weather stations | Latest weather observations for QLD | Other Formats
Station Details ID: 033210 Name: ST LAWRENCE Lat: -22.35 Lon: 149.52 Height: 9.19 m
Data from the previous 72 hours. | See also: Recent months at St Lawrence
Date/Time
EST
Temp
°C
App
Temp
°C
Dew
Point
Rel
Hum
%
Delta-T
°C
Wind Press
QNH
hPa
Press
MSL
hPa
Rain
since 9 am
mm
Dir
 
Spd
km/h
Gust
km/h
Spd
kts
Gust
kts
20/08:30pm 20.8 23.5 17.8 83 1.8 NNE 0 0 0 0 1018.0 - 0.0
20/08:00pm 21.0 23.8 18.0 83 1.9 NNE 0 0 0 0 1017.7 - 0.0
20/07:30pm 21.5 24.3 17.9 80 2.2 CALM 0 0 0 0 1017.4 - 0.0
20/07:00pm 23.0 25.8 17.9 73 3.2 CALM 0 0 0 0 1016.8 - 0.0
20/06:30pm 24.1 25.1 17.8 68 3.9 N 9 11 5 6 1016.6 - 0.0
20/06:00pm 24.6 25.2 17.6 65 4.4 NNE 11 15 6 8 1016.2 1016.1 0.0
20/05:30pm 25.4 25.0 17.1 60 5.2 NNE 15 20 8 11 1015.9 - 0.0
20/05:00pm 26.0 25.6 17.1 58 5.5 NNE 15 22 8 12 1015.6 - 0.0
20/04:30pm 26.8 26.2 17.6 57 5.8 NNE 17 20 9 11 1015.3 - 0.0
20/04:00pm 27.0 26.6 17.2 55 6.1 NNE 15 22 8 12 1015.2 - 0.0
20/03:30pm 27.2 26.9 17.4 55 6.2 NE 15 20 8 11 1015.0 - 0.0
20/03:00pm 27.6 27.4 17.7 54 6.2 NE 15 22 8 12 1015.0 1014.9 0.0
20/02:30pm 27.6 27.6 18.0 55 6.1 NNE 15 20 8 11 1014.9 - 0.0
20/02:00pm 27.5 27.0 17.7 55 6.2 NNE 17 22 9 12 1015.0 - 0.0
20/01:30pm 27.5 27.0 17.7 55 6.2 NE 17 22 9 12 1015.1 - 0.0
20/01:00pm 28.1 27.0 17.3 52 6.8 NNE 19 24 10 13 1015.5 - 0.0
20/12:30pm 27.8 27.6 17.6 53 6.4 NE 15 20 8 11 1015.9 - 0.0
20/12:00pm 26.6 26.4 17.7 58 5.6 NNE 15 22 8 12 1016.5 1016.4 0.0
20/11:30am 26.7 27.6 17.5 57 5.8 ENE 9 17 5 9 1016.9 - 0.0
20/11:00am 27.3 29.2 18.9 60 5.4 NE 7 17 4 9 1017.3 - 0.0
20/10:30am 25.8 27.9 19.0 66 4.4 S 6 11 3 6 1017.5 - 0.0
20/10:00am 25.8 28.1 19.4 67 4.1 S 6 11 3 6 1017.5 - 0.0
20/09:30am 24.8 26.7 19.0 70 3.7 SSE 7 9 4 5 1017.6 - 0.0
20/09:00am 23.7 25.2 19.0 75 3.0 S 9 11 5 6 1017.4 1017.3 0.0
20/08:30am 22.2 24.0 18.8 81 2.1 S 7 11 4 6 1017.2 - 0.0
20/08:00am 20.6 22.4 18.7 89 1.2 SSW 7 9 4 5 1016.9 - 0.0
20/07:30am 18.7 21.3 17.5 93 0.7 CALM 0 0 0 0 1016.7 - 0.0
20/07:00am 17.5 19.9 16.9 96 0.4 CALM 0 0 0 0 1016.4 - 0.0
20/06:30am 16.9 18.9 16.1 95 0.5 CALM 0 6 0 3 1016.0 - 0.0
20/06:00am 16.5 18.3 15.5 94 0.6 WSW 0 0 0 0 1015.8 1015.7 0.0
20/05:30am 17.0 17.9 16.2 95 0.5 WSW 6 6 3 3 1015.5 - 0.0
20/05:00am 16.9 18.0 15.6 92 0.8 SW 4 6 2 3 1015.2 - 0.0
20/04:30am 17.3 18.2 16.0 92 0.8 SW 6 7 3 4 1014.9 - 0.0
20/04:00am 17.2 19.2 16.1 93 0.7 CALM 0 0 0 0 1014.6 - 0.0
20/03:30am 17.2 19.2 15.9 92 0.8 CALM 0 0 0 0 1014.6 - 0.0
20/03:00am 17.9 20.1 16.6 92 0.8 CALM 0 0 0 0 1014.7 1014.6 0.0
20/02:30am 18.1 19.1 16.4 90 1.0 SW 6 7 3 4 1014.8 - 0.0
20/02:00am 18.2 19.3 16.5 90 1.0 SW 6 7 3 4 1014.8 - 0.0
20/01:30am 18.3 19.4 16.6 90 1.0 SW 6 7 3 4 1015.0 - 0.0
20/01:00am 18.4 19.6 16.9 91 0.9 WSW 6 7 3 4 1015.1 - 0.0
20/12:30am 18.6 20.0 17.3 92 0.8 SW 6 7 3 4 1015.4 - 0.0
20/12:00am 18.9 20.4 17.7 93 0.7 WSW 6 7 3 4 1015.5 1015.4 0.0
 
Date/Time
EST
Temp
°C
App
Temp
°C
Dew
Point
Rel
Hum
%
Delta-T
°C
Wind Press
QNH
hPa
Press
MSL
hPa
Rain
since 9 am
mm
Dir
 
Spd
km/h
Gust
km/h
Spd
kts
Gust
kts
19/11:30pm 19.4 21.9 18.2 93 0.7 WSW 2 7 1 4 1015.7 - 0.0
19/11:00pm 19.6 22.5 18.3 92 0.8 CALM 0 0 0 0 1015.7 - 0.0
19/10:30pm 19.6 22.2 17.6 88 1.2 CALM 0 0 0 0 1015.8 - 0.0
19/10:00pm 20.4 23.4 18.5 89 1.2 CALM 0 0 0 0 1015.9 - 0.0
19/09:30pm 20.6 23.6 18.5 88 1.3 CALM 0 0 0 0 1015.8 - 0.0
19/09:00pm 21.5 23.9 18.7 84 1.8 NE 4 6 2 3 1015.8 1015.7 0.0
19/08:30pm 22.1 24.2 18.9 82 2.0 NE 6 9 3 5 1015.7 - 0.0
19/08:00pm 22.6 24.7 19.0 80 2.3 NNE 6 7 3 4 1015.4 - 0.0
19/07:30pm 22.6 24.6 18.8 79 2.4 NE 6 9 3 5 1015.2 - 0.0
19/07:00pm 23.4 25.4 18.7 75 3.0 NNE 6 7 3 4 1014.7 - 0.0
19/06:30pm 24.4 25.8 18.6 70 3.7 N 9 13 5 7 1014.4 - 0.0
19/06:00pm 24.9 25.3 18.1 66 4.3 NNE 13 19 7 10 1014.2 1014.1 0.0
19/05:30pm 25.9 25.6 17.3 59 5.4 NNE 15 20 8 11 1014.0 - 0.0
19/05:00pm 26.7 25.8 16.9 55 6.1 NNE 17 22 9 12 1013.7 - 0.0
19/04:30pm 27.1 26.6 17.8 56 5.9 NNE 17 22 9 12 1013.6 - 0.0
19/04:00pm 27.9 27.5 17.1 51 6.8 NE 15 20 8 11 1013.5 - 0.0
19/03:30pm 28.1 27.4 16.4 49 7.3 NE 15 20 8 11 1013.4 - 0.0
19/03:00pm 28.4 27.9 16.0 47 7.7 NE 13 19 7 10 1013.5 1013.4 0.0
19/02:30pm 28.6 27.5 14.4 41 8.6 NNE 13 17 7 9 1013.7 - 0.0
19/02:00pm 28.6 27.4 14.1 41 8.7 NNE 13 19 7 10 1014.0 - 0.0
19/01:30pm 28.7 28.3 15.2 43 8.2 NNE 11 19 6 10 1014.3 - 0.0
19/01:00pm 28.5 27.9 14.7 43 8.4 NNE 11 17 6 9 1014.8 - 0.0
19/12:30pm 28.1 28.5 15.4 46 7.8 N 7 17 4 9 1015.2 - 0.0
19/12:00pm 28.1 28.9 17.3 52 6.8 NE 9 13 5 7 1015.7 1015.6 0.0
19/11:30am 27.6 28.5 16.6 51 6.8 NE 7 17 4 9 1016.2 - 0.0
19/11:00am 26.9 27.8 16.5 53 6.4 E 7 13 4 7 1016.7 - 0.0
19/10:30am 27.0 29.8 19.6 64 4.8 WSW 4 7 2 4 1017.0 - 0.0
19/10:00am 25.7 28.5 20.5 73 3.4 W 6 7 3 4 1017.3 - 0.0
19/09:30am 25.2 28.4 20.5 75 3.1 SSE 4 9 2 5 1017.4 - 0.0
19/09:00am 23.9 26.2 19.8 78 2.6 S 7 11 4 6 1017.5 1017.4 0.0
19/08:30am 23.1 25.8 20.6 86 1.6 S 7 9 4 5 1017.5 - 0.0
19/08:00am 21.9 25.0 20.2 90 1.1 S 4 7 2 4 1017.4 - 0.0
19/07:30am 20.6 23.1 19.9 96 0.4 S 6 7 3 4 1017.2 - 0.0
19/07:00am 19.3 21.7 18.8 97 0.3 SW 4 6 2 3 1017.2 - 0.0
19/06:30am 18.4 20.0 17.9 97 0.3 SSW 6 9 3 5 1017.0 - 0.0
19/06:00am 18.4 19.8 17.8 96 0.4 SSW 7 9 4 5 1016.6 1016.5 0.0
19/05:30am 18.3 19.7 17.7 96 0.4 WSW 7 9 4 5 1016.3 - 0.0
19/05:00am 18.7 20.5 18.2 97 0.3 WSW 6 7 3 4 1015.8 - 0.0
19/04:30am 18.3 20.2 17.7 96 0.4 SSW 4 7 2 4 1015.6 - 0.0
19/04:00am 18.3 19.8 17.5 95 0.5 SSW 6 7 3 4 1015.6 - 0.0
19/03:30am 18.4 19.6 17.4 94 0.6 SSW 7 9 4 5 1015.6 - 0.0
19/03:00am 19.0 20.7 18.0 94 0.6 S 6 7 3 4 1015.6 1015.5 0.0
19/02:30am 19.2 21.3 18.2 94 0.6 SW 4 6 2 3 1015.7 - 0.0
19/02:00am 19.4 21.2 18.4 94 0.6 WSW 6 7 3 4 1015.9 - 0.0
19/01:30am 19.5 22.5 18.5 94 0.6 CALM 0 0 0 0 1016.1 - 0.0
19/01:00am 19.7 22.8 18.7 94 0.6 CALM 0 0 0 0 1016.3 - 0.0
19/12:30am 19.9 22.0 18.9 94 0.6 WSW 6 7 3 4 1016.5 - 0.0
19/12:00am 20.1 22.3 19.1 94 0.6 WSW 6 7 3 4 1016.5 1016.4 0.0
 
Date/Time
EST
Temp
°C
App
Temp
°C
Dew
Point
Rel
Hum
%
Delta-T
°C
Wind Press
QNH
hPa
Press
MSL
hPa
Rain
since 9 am
mm
Dir
 
Spd
km/h
Gust
km/h
Spd
kts
Gust
kts
18/11:30pm 20.3 22.5 19.3 94 0.6 WSW 6 7 3 4 1016.5 - 0.0
18/11:00pm 20.3 23.5 18.8 91 0.9 CALM 0 0 0 0 1016.6 - 0.0
18/10:30pm 20.7 24.0 19.2 91 0.9 CALM 0 0 0 0 1016.4 - 0.0
18/10:00pm 20.9 24.2 19.2 90 1.1 CALM 0 0 0 0 1016.5 - 0.0
18/09:30pm 21.3 24.8 19.6 90 1.1 CALM 0 0 0 0 1016.5 - 0.0
18/09:00pm 21.6 25.2 19.7 89 1.2 CALM 0 0 0 0 1016.4 1016.3 0.0
18/08:30pm 22.2 25.4 19.7 86 1.6 ENE 2 6 1 3 1016.2 - 0.0
18/08:00pm 22.9 26.3 20.1 84 1.8 NNW 2 7 1 4 1015.8 - 0.0
18/07:30pm 23.4 26.0 20.0 81 2.2 NNW 6 7 3 4 1015.6 - 0.0
18/07:00pm 24.0 26.3 19.9 78 2.6 NNE 7 9 4 5 1015.3 - 0.0
18/06:30pm 24.4 26.6 20.3 78 2.7 NE 9 13 5 7 1015.0 - 0.0
18/06:00pm 24.8 26.5 20.1 75 3.0 NE 11 15 6 8 1014.7 1014.6 0.0
18/05:30pm 25.4 27.0 20.0 72 3.5 NNE 11 15 6 8 1014.3 - 0.0
18/05:00pm 26.0 27.7 20.1 70 3.8 NNE 11 13 6 7 1014.0 - 0.0
18/04:30pm 26.2 26.7 19.3 65 4.4 N 15 19 8 10 1013.7 - 0.0
18/04:00pm 27.1 27.9 19.9 64 4.7 N 15 22 8 12 1013.4 - 0.0
18/03:30pm 27.4 27.5 19.2 61 5.3 N 17 24 9 13 1013.2 - 0.0
18/03:00pm 27.9 29.1 20.7 65 4.8 N 15 22 8 12 1013.3 1013.2 0.0
18/02:30pm 27.4 28.0 19.5 62 5.1 NE 15 20 8 11 1013.4 - 0.0
18/02:00pm 28.1 28.8 19.6 60 5.5 NNE 15 20 8 11 1013.6 - 0.0
18/01:30pm 27.8 29.0 20.6 65 4.7 NE 15 20 8 11 1013.9 - 0.0
18/01:00pm 26.7 28.0 20.1 67 4.3 NE 13 19 7 10 1014.3 - 0.0
18/12:30pm 27.5 28.3 19.0 59 5.5 NNE 13 19 7 10 1014.6 - 0.0
18/12:00pm 27.9 29.8 20.5 64 4.9 NNE 11 17 6 9 1015.1 1015.0 0.0
18/11:30am 27.4 29.3 20.5 66 4.5 N 11 15 6 8 1015.6 - 0.0
18/11:00am 26.8 29.0 20.4 68 4.2 N 9 13 5 7 1016.2 - 0.0
18/10:30am 27.1 29.7 20.4 66 4.4 NE 7 11 4 6 1016.6 - 0.0
18/10:00am 24.5 27.3 20.4 78 2.7 SE 6 7 3 4 1016.9 - 0.0
18/09:30am 25.3 28.2 21.0 77 2.8 SSW 7 11 4 6 1017.1 - 0.0
18/09:00am 24.4 27.0 20.5 79 2.5 SSW 7 11 4 6 1017.1 1017.0 0.0
18/08:30am 23.6 25.3 20.1 81 2.3 S 11 15 6 8 1016.9 - 0.0
18/08:00am 22.8 24.4 20.0 84 1.8 SSE 11 17 6 9 1016.9 - 0.0
18/07:30am 21.7 23.4 20.2 91 1.0 S 11 17 6 9 1016.7 - 0.0
18/07:00am 20.8 22.8 20.0 95 0.5 S 9 13 5 7 1016.6 - 0.0
18/06:30am 20.4 22.3 19.7 96 0.4 S 9 15 5 8 1016.3 - 0.0
18/06:00am 19.9 23.2 19.1 95 0.5 CALM 0 0 0 0 1016.0 1015.9 0.0
18/05:30am 20.1 23.1 19.3 95 0.5 S 2 7 1 4 1015.8 - 0.0
18/05:00am 20.3 23.3 19.3 94 0.6 SSW 2 6 1 3 1015.6 - 0.0
18/04:30am 21.2 23.8 20.0 93 0.8 SSE 6 9 3 5 1015.5 - 0.0
18/04:00am 21.0 23.4 19.6 92 0.9 S 6 7 3 4 1015.4 - 0.0
18/03:30am 21.0 24.6 19.8 93 0.8 CALM 0 0 0 0 1015.4 - 0.0
18/03:00am 21.1 24.9 20.1 94 0.6 CALM 0 0 0 0 1015.6 1015.5 0.0
18/02:30am 20.9 23.8 19.9 94 0.6 WSW 4 6 2 3 1015.7 - 0.0
18/02:00am 20.8 23.3 19.8 94 0.6 WSW 6 7 3 4 1015.7 - 0.0
18/01:30am 20.4 23.7 19.2 93 0.8 CALM 0 0 0 0 1016.0 - 0.0
18/01:00am 20.9 24.1 19.7 93 0.8 S 2 6 1 3 1016.2 - 0.0
18/12:30am 21.1 24.8 19.9 93 0.8 CALM 0 0 0 0 1016.4 - 0.0
18/12:00am 21.1 24.3 19.7 92 0.9 SW 2 6 1 3 1016.5 1016.4 0.0
 
Date/Time
EST
Temp
°C
App
Temp
°C
Dew
Point
Rel
Hum
%
Delta-T
°C
Wind Press
QNH
hPa
Press
MSL
hPa
Rain
since 9 am
mm
Dir
 
Spd
km/h
Gust
km/h
Spd
kts
Gust
kts
17/11:30pm 21.0 24.5 19.6 92 0.9 CALM 0 7 0 4 1016.8 - 0.0
17/11:00pm 21.6 25.4 20.1 91 1.0 CALM 0 0 0 0 1016.9 - 0.0
17/10:30pm 21.8 25.6 20.1 90 1.1 CALM 0 0 0 0 1017.0 - 0.0
17/10:00pm 22.0 25.8 20.1 89 1.2 CALM 0 0 0 0 1016.9 - 0.0
17/09:30pm 22.1 25.9 20.2 89 1.2 CALM 0 0 0 0 1016.9 - 0.0
17/09:00pm 22.5 26.3 20.2 87 1.5 CALM 0 0 0 0 1016.8 1016.7 0.0

Other Formats:

Comma delimited format used in spreadsheet applications
http://www.bom.gov.au/fwo/IDQ60801/IDQ60801.95369.axf

JavaScript Object Notation format (JSON) in row-major order
http://www.bom.gov.au/fwo/IDQ60801/IDQ60801.95369.json